Time;durP1;ratioP1;P1;durP2;ratioP2;P2;SDS_P1;SDS_P2;PMS_P1;PMS_P2;Temp;Humidity;BMP_temperature;BMP_pressure;BME280_temperature;BME280_humidity;BME280_pressure;Samples;Min_cycle;Max_cycle;Signal;HPM_P1;HPM_P2
2023/09/28 00:01:35;;;;;;;7.85;5.95;;;18.80;99.90;;;;;;5072971;28;20040;-73
2023/09/28 00:04:01;;;;;;;8.10;5.90;;;18.80;99.90;;;;;;5072851;28;20485;-73
2023/09/28 00:06:27;;;;;;;9.20;5.97;;;18.90;99.90;;;;;;5072864;28;20036;-73
2023/09/28 00:08:52;;;;;;;6.78;5.18;;;18.90;99.90;;;;;;5073091;28;20100;-73
2023/09/28 00:11:18;;;;;;;8.15;5.47;;;18.90;99.90;;;;;;5072804;28;20063;-73
2023/09/28 00:13:43;;;;;;;9.40;5.80;;;18.80;99.90;;;;;;5072910;28;20117;-73
2023/09/28 00:16:09;;;;;;;6.30;5.70;;;18.80;99.90;;;;;;5072408;28;20068;-73
2023/09/28 00:18:36;;;;;;;8.57;5.93;;;18.80;99.90;;;;;;5072644;28;20055;-73
2023/09/28 00:21:01;;;;;;;8.30;5.75;;;18.80;99.90;;;;;;5072609;28;20094;-73
2023/09/28 00:23:27;;;;;;;8.32;7.20;;;18.80;99.90;;;;;;5072469;28;20041;-73
2023/09/28 00:25:52;;;;;;;7.70;6.82;;;18.80;99.90;;;;;;5072757;28;20041;-73
2023/09/28 00:28:18;;;;;;;10.57;6.22;;;18.80;99.90;;;;;;5072457;28;20040;-73
2023/09/28 00:30:44;;;;;;;8.32;6.32;;;18.80;99.90;;;;;;5072402;28;20097;-73
2023/09/28 00:33:09;;;;;;;11.35;6.93;;;18.80;99.90;;;;;;5055650;28;20044;-73
2023/09/28 00:35:35;;;;;;;6.82;6.15;;;18.80;99.90;;;;;;5072648;28;20032;-73
2023/09/28 00:38:00;;;;;;;7.50;5.78;;;18.80;99.90;;;;;;5072252;28;20465;-73
2023/09/28 00:40:31;;;;;;;12.18;6.22;;;18.70;99.90;;;;;;5072271;28;20040;-73
2023/09/28 00:42:58;;;;;;;8.32;6.28;;;18.80;99.90;;;;;;5072158;28;20041;-73
2023/09/28 00:45:25;;;;;;;10.30;5.90;;;18.70;99.90;;;;;;5072212;28;20068;-73
2023/09/28 00:47:56;;;;;;;7.28;5.70;;;18.70;99.90;;;;;;5071718;28;20048;-73
2023/09/28 00:50:23;;;;;;;9.80;6.65;;;18.70;99.90;;;;;;5072446;28;20044;-73
2023/09/28 00:52:55;;;;;;;10.75;6.22;;;18.70;99.90;;;;;;5072096;28;20461;-73
2023/09/28 00:55:22;;;;;;;7.20;5.97;;;18.70;99.90;;;;;;5072400;28;20088;-73
2023/09/28 00:57:48;;;;;;;9.60;5.82;;;18.70;99.90;;;;;;5071941;28;20040;-73
2023/09/28 01:02:51;;;;;;;7.28;6.05;;;18.70;99.90;;;;;;5071917;28;20119;-73
2023/09/28 01:05:17;;;;;;;7.95;5.18;;;18.70;99.90;;;;;;5072156;28;20050;-73
2023/09/28 01:07:43;;;;;;;9.55;5.40;;;18.70;99.90;;;;;;5071967;28;20070;-73
2023/09/28 01:10:12;;;;;;;8.82;5.55;;;18.80;99.90;;;;;;5072182;28;20040;-72
2023/09/28 01:12:41;;;;;;;9.23;5.50;;;18.70;99.90;;;;;;5072102;28;20044;-72
2023/09/28 01:15:11;;;;;;;8.18;5.18;;;18.70;99.90;;;;;;5072577;28;20493;-72
2023/09/28 01:17:38;;;;;;;7.85;4.85;;;18.70;99.90;;;;;;5071764;28;20040;-73
2023/09/28 01:20:10;;;;;;;10.52;6.07;;;18.70;99.90;;;;;;5055165;28;20040;-73
2023/09/28 01:22:35;;;;;;;7.90;4.63;;;18.70;99.90;;;;;;5072121;28;20181;-74
2023/09/28 01:25:03;;;;;;;7.03;5.07;;;18.70;99.90;;;;;;5071683;28;20556;-74
2023/09/28 01:27:29;;;;;;;8.43;5.20;;;18.70;99.90;;;;;;5071778;28;20097;-74
2023/09/28 01:29:54;;;;;;;8.55;5.18;;;18.70;99.90;;;;;;5071707;28;20076;-74
2023/09/28 01:32:20;;;;;;;11.82;5.30;;;18.70;99.90;;;;;;5071714;28;20123;-74
2023/09/28 01:34:45;;;;;;;6.40;4.75;;;18.60;99.90;;;;;;5055174;28;20032;-74
2023/09/28 01:37:11;;;;;;;7.65;4.75;;;18.60;99.90;;;;;;5071575;28;20036;-74
2023/09/28 01:39:38;;;;;;;5.72;4.75;;;18.60;99.90;;;;;;5071613;28;20037;-73
2023/09/28 01:42:03;;;;;;;8.27;5.20;;;18.60;99.90;;;;;;5071831;28;20052;-73
2023/09/28 01:44:29;;;;;;;8.18;5.10;;;18.60;99.90;;;;;;5071512;28;20041;-73
2023/09/28 01:46:54;;;;;;;7.50;5.10;;;18.50;99.90;;;;;;5071548;28;20123;-73
2023/09/28 01:49:21;;;;;;;7.82;4.75;;;18.50;99.90;;;;;;5071550;28;20040;-73
2023/09/28 01:51:46;;;;;;;7.40;5.25;;;18.50;99.90;;;;;;5071502;28;20052;-73
2023/09/28 01:54:12;;;;;;;8.40;4.40;;;18.40;99.90;;;;;;5071374;28;20044;-73
2023/09/28 01:56:38;;;;;;;6.55;4.53;;;18.40;99.90;;;;;;5071392;28;20045;-73
2023/09/28 01:59:03;;;;;;;7.63;5.15;;;18.40;99.90;;;;;;5072595;28;20128;-73
2023/09/28 02:01:31;;;;;;;7.25;4.63;;;18.40;99.90;;;;;;5075278;28;20090;-73
2023/09/28 02:03:57;;;;;;;5.90;4.80;;;18.30;99.90;;;;;;5075168;28;20595;-73
2023/09/28 02:06:22;;;;;;;7.40;4.43;;;18.30;99.90;;;;;;5075210;28;20040;-73
2023/09/28 02:08:48;;;;;;;6.30;4.85;;;18.30;99.90;;;;;;5075120;28;20037;-72
2023/09/28 02:11:14;;;;;;;7.90;4.43;;;18.20;99.90;;;;;;5075060;28;20064;-72
2023/09/28 02:13:40;;;;;;;5.97;4.75;;;18.20;99.90;;;;;;5074997;28;20085;-72
2023/09/28 02:16:11;;;;;;;7.22;5.05;;;18.10;99.90;;;;;;5074882;28;20041;-72
2023/09/28 02:18:37;;;;;;;8.15;4.78;;;18.10;99.90;;;;;;5074917;28;20131;-72
2023/09/28 02:21:03;;;;;;;8.95;4.50;;;18.10;99.90;;;;;;5074907;28;20134;-72
2023/09/28 02:23:29;;;;;;;6.82;4.20;;;18.00;99.90;;;;;;5074774;28;20041;-72
2023/09/28 02:25:54;;;;;;;9.88;4.72;;;18.00;99.90;;;;;;5075100;28;20049;-72
2023/09/28 02:28:21;;;;;;;7.20;4.50;;;17.90;99.90;;;;;;5075031;28;20508;-73
2023/09/28 02:30:46;;;;;;;9.65;5.00;;;17.80;99.90;;;;;;5074744;28;20044;-73
2023/09/28 02:33:12;;;;;;;7.18;4.65;;;17.80;99.90;;;;;;5074650;28;20079;-73
2023/09/28 02:35:37;;;;;;;7.47;5.35;;;17.70;99.90;;;;;;5074949;28;20130;-73
2023/09/28 02:38:03;;;;;;;5.95;4.28;;;17.70;99.90;;;;;;5074529;28;20448;-73
2023/09/28 02:40:29;;;;;;;6.68;4.25;;;17.60;99.90;;;;;;5074823;28;20038;-73
2023/09/28 02:42:55;;;;;;;6.40;4.20;;;17.60;99.90;;;;;;5074459;28;20040;-73
2023/09/28 02:45:21;;;;;;;6.90;4.70;;;17.60;99.90;;;;;;5074485;28;20032;-73
2023/09/28 02:47:48;;;;;;;9.77;4.75;;;17.50;99.90;;;;;;5075688;28;20041;-73
2023/09/28 02:50:16;;;;;;;6.85;4.65;;;17.50;99.90;;;;;;5074398;28;20039;-73
2023/09/28 02:52:45;;;;;;;6.75;4.97;;;17.50;99.90;;;;;;5057625;28;20036;-73
2023/09/28 02:55:12;;;;;;;6.25;4.70;;;17.40;99.90;;;;;;5074467;28;20044;-73
2023/09/28 02:57:38;;;;;;;7.38;4.95;;;17.40;99.90;;;;;;5074140;28;20413;-73
2023/09/28 03:00:24;;;;;;;9.23;4.80;;;17.40;99.90;;;;;;5074121;28;20044;-74
2023/09/28 03:02:51;;;;;;;8.70;5.25;;;17.30;99.90;;;;;;5074169;28;20039;-73
2023/09/28 03:05:20;;;;;;;8.65;5.20;;;17.30;99.90;;;;;;5074065;28;20044;-73
2023/09/28 03:07:46;;;;;;;6.82;5.28;;;17.30;99.90;;;;;;5074048;28;20452;-73
2023/09/28 03:10:12;;;;;;;7.75;5.45;;;17.20;99.90;;;;;;5073711;28;20036;-73
2023/09/28 03:12:38;;;;;;;7.82;5.57;;;17.20;99.90;;;;;;5074023;28;20040;-73
2023/09/28 03:15:10;;;;;;;8.82;5.78;;;17.10;99.90;;;;;;5074167;28;20040;-73
2023/09/28 03:17:36;;;;;;;6.80;5.57;;;17.10;99.90;;;;;;5073672;28;20119;-73
2023/09/28 03:20:09;;;;;;;9.68;5.47;;;17.10;99.90;;;;;;5073859;28;20032;-74
2023/09/28 03:22:35;;;;;;;8.10;6.03;;;17.00;99.90;;;;;;5073863;28;20044;-73
2023/09/28 03:25:01;;;;;;;8.32;6.32;;;17.00;99.90;;;;;;5057001;28;20028;-73
2023/09/28 03:27:26;;;;;;;9.60;6.28;;;17.00;99.90;;;;;;5073997;28;20044;-73
2023/09/28 03:29:52;;;;;;;8.93;6.35;;;17.00;99.90;;;;;;5073651;28;20045;-73
2023/09/28 03:32:17;;;;;;;9.38;6.57;;;16.90;99.90;;;;;;5073578;28;20076;-73
2023/09/28 03:34:43;;;;;;;10.65;6.43;;;16.90;99.90;;;;;;5073547;28;20048;-73
2023/09/28 03:37:09;;;;;;;10.80;6.95;;;16.80;99.90;;;;;;5073424;28;20041;-73
2023/09/28 03:39:35;;;;;;;7.88;6.90;;;16.90;99.90;;;;;;5073476;28;20055;-73
2023/09/28 03:42:01;;;;;;;9.15;6.65;;;16.80;99.90;;;;;;5073401;28;20045;-73
2023/09/28 03:44:26;;;;;;;10.98;6.78;;;16.80;99.90;;;;;;5073568;28;20044;-73
2023/09/28 03:46:52;;;;;;;9.45;7.00;;;16.80;99.90;;;;;;5073299;28;20497;-73
2023/09/28 03:49:18;;;;;;;10.00;6.90;;;16.80;99.90;;;;;;5073470;28;20040;-73
2023/09/28 03:51:43;;;;;;;8.93;6.32;;;16.70;99.90;;;;;;5073220;28;20040;-73
2023/09/28 03:54:09;;;;;;;9.60;6.60;;;16.80;99.90;;;;;;5073093;28;20072;-73
2023/09/28 03:56:34;;;;;;;8.65;6.80;;;16.70;99.90;;;;;;5073293;28;20047;-73
2023/09/28 03:59:00;;;;;;;8.93;6.50;;;16.70;99.90;;;;;;5073083;28;20535;-73
2023/09/28 04:01:26;;;;;;;8.25;6.43;;;16.60;99.90;;;;;;5072950;28;20044;-73
2023/09/28 04:03:53;;;;;;;9.40;5.90;;;16.60;99.90;;;;;;5072871;28;20039;-73
2023/09/28 04:06:18;;;;;;;9.52;6.55;;;16.50;99.90;;;;;;5072922;28;20040;-73
2023/09/28 04:08:44;;;;;;;10.55;6.40;;;16.50;99.90;;;;;;5072862;28;20045;-73
2023/09/28 04:11:10;;;;;;;8.10;6.28;;;16.40;99.90;;;;;;5072791;28;20042;-73
2023/09/28 04:13:35;;;;;;;10.73;6.75;;;16.50;99.90;;;;;;5072624;28;20083;-73
2023/09/28 04:16:01;;;;;;;10.18;6.57;;;16.40;99.90;;;;;;5072616;28;20045;-73
2023/09/28 04:18:27;;;;;;;7.15;5.50;;;16.40;99.90;;;;;;5072637;28;20124;-73
2023/09/28 04:20:52;;;;;;;8.68;5.70;;;16.40;99.90;;;;;;5072573;28;20554;-73
2023/09/28 04:23:18;;;;;;;7.32;5.75;;;16.40;99.90;;;;;;5072121;28;20067;-73
2023/09/28 04:25:43;;;;;;;11.18;6.15;;;16.30;99.90;;;;;;5072488;28;20040;-73
2023/09/28 04:28:10;;;;;;;10.48;6.03;;;16.30;99.90;;;;;;5072752;28;20044;-73
2023/09/28 04:30:37;;;;;;;7.88;6.10;;;16.30;99.90;;;;;;5072426;28;20044;-73
2023/09/28 04:33:03;;;;;;;8.68;6.35;;;16.30;99.90;;;;;;5072312;28;20041;-73
2023/09/28 04:35:29;;;;;;;9.02;6.30;;;16.30;99.90;;;;;;5072601;28;20040;-73
2023/09/28 04:37:54;;;;;;;9.23;6.20;;;16.30;99.90;;;;;;5072271;28;20414;-73
2023/09/28 04:40:24;;;;;;;11.85;6.35;;;16.40;99.90;;;;;;5055593;28;20090;-73
2023/09/28 04:42:50;;;;;;;7.82;5.88;;;16.30;99.90;;;;;;5072143;28;20044;-73
2023/09/28 04:45:15;;;;;;;8.05;5.90;;;16.30;99.90;;;;;;5072230;28;20412;-73
2023/09/28 04:47:42;;;;;;;10.55;6.55;;;16.30;99.90;;;;;;5072416;28;20047;-73
2023/09/28 04:50:08;;;;;;;10.45;6.32;;;16.30;99.90;;;;;;5072118;28;20044;-73
2023/09/28 04:52:34;;;;;;;9.38;6.47;;;16.30;99.90;;;;;;5072108;28;20124;-73
2023/09/28 04:55:01;;;;;;;10.73;6.10;;;16.30;99.90;;;;;;5072040;28;20123;-73
2023/09/28 04:57:27;;;;;;;8.07;6.38;;;16.30;99.90;;;;;;5071980;28;20051;-73
2023/09/28 04:59:53;;;;;;;11.10;6.07;;;16.40;99.90;;;;;;5072024;28;20032;-73
2023/09/28 05:02:20;;;;;;;10.77;6.18;;;16.40;99.90;;;;;;5072025;28;20047;-73
2023/09/28 05:04:45;;;;;;;8.35;6.30;;;16.40;99.90;;;;;;5071921;28;20037;-73
2023/09/28 05:07:11;;;;;;;8.70;6.43;;;16.40;99.90;;;;;;5071933;28;20040;-73
2023/09/28 05:09:38;;;;;;;9.07;6.28;;;16.40;99.90;;;;;;5071919;28;20036;-73
2023/09/28 05:12:04;;;;;;;11.43;6.70;;;16.40;99.90;;;;;;5071922;28;20041;-73
2023/09/28 05:14:29;;;;;;;10.73;6.97;;;16.40;99.90;;;;;;5071787;28;20051;-73
2023/09/28 05:16:55;;;;;;;10.68;6.75;;;16.40;99.90;;;;;;5071682;28;20044;-73
2023/09/28 05:19:21;;;;;;;11.75;6.47;;;16.30;99.90;;;;;;5071822;28;20079;-73
2023/09/28 05:21:47;;;;;;;10.25;6.15;;;16.30;99.90;;;;;;5072074;28;20040;-73
2023/09/28 05:24:13;;;;;;;11.73;6.20;;;16.30;99.90;;;;;;5071727;28;20068;-73
2023/09/28 05:26:39;;;;;;;9.27;6.25;;;16.20;99.90;;;;;;5071755;28;20137;-73
2023/09/28 05:29:04;;;;;;;11.55;6.57;;;16.20;99.90;;;;;;5071727;28;20047;-73
2023/09/28 05:31:30;;;;;;;10.85;5.78;;;16.30;99.90;;;;;;5071975;28;20040;-73
2023/09/28 05:33:56;;;;;;;11.98;5.93;;;16.30;99.90;;;;;;5074291;28;20072;-73
2023/09/28 05:36:22;;;;;;;8.32;5.55;;;16.30;99.90;;;;;;5077239;28;20493;-73
2023/09/28 05:38:47;;;;;;;12.80;6.40;;;16.30;99.90;;;;;;5075772;28;20044;-73
2023/09/28 05:41:13;;;;;;;8.65;5.43;;;16.30;99.90;;;;;;5075703;28;20043;-73
2023/09/28 05:43:38;;;;;;;9.70;5.63;;;16.30;99.90;;;;;;5075588;28;20040;-73
2023/09/28 05:46:04;;;;;;;9.77;6.10;;;16.20;99.90;;;;;;5075883;28;20044;-73
2023/09/28 05:48:30;;;;;;;11.95;6.63;;;16.20;99.90;;;;;;5075583;28;20047;-73
2023/09/28 05:50:56;;;;;;;9.95;6.40;;;16.20;99.90;;;;;;5075771;28;20060;-73
2023/09/28 05:53:21;;;;;;;11.20;6.32;;;16.10;99.90;;;;;;5075682;28;20076;-73
2023/09/28 05:55:50;;;;;;;11.18;6.65;;;16.10;99.90;;;;;;5075673;28;20443;-73
2023/09/28 05:58:15;;;;;;;12.52;5.72;;;16.10;99.90;;;;;;5075297;28;20098;-73
2023/09/28 06:00:41;;;;;;;8.20;5.85;;;16.20;99.90;;;;;;5075354;28;20037;-73
2023/09/28 06:03:07;;;;;;;10.90;6.32;;;16.20;99.90;;;;;;5058495;28;20040;-73
2023/09/28 06:05:32;;;;;;;10.98;6.47;;;16.10;99.90;;;;;;5075470;28;20036;-73
2023/09/28 06:07:59;;;;;;;10.85;6.47;;;16.10;99.90;;;;;;5075172;28;20467;-73
2023/09/28 06:10:26;;;;;;;15.15;6.00;;;16.10;99.90;;;;;;5075129;28;20048;-72
2023/09/28 06:12:52;;;;;;;10.88;5.05;;;16.10;99.90;;;;;;5074996;28;20059;-72
2023/09/28 06:15:18;;;;;;;14.73;5.22;;;16.20;99.90;;;;;;5074987;28;20119;-73
2023/09/28 06:17:43;;;;;;;9.43;4.78;;;16.20;99.90;;;;;;5074875;28;20033;-73
2023/09/28 06:20:09;;;;;;;13.63;4.95;;;16.20;99.90;;;;;;5058283;28;20508;-73
2023/09/28 06:22:35;;;;;;;15.75;5.20;;;16.30;99.90;;;;;;5074913;28;20029;-73
2023/09/28 06:25:02;;;;;;;13.35;5.63;;;16.20;99.90;;;;;;5075366;28;20036;-72
2023/09/28 06:27:28;;;;;;;11.77;4.80;;;16.30;99.90;;;;;;5074776;28;20044;-72
2023/09/28 06:29:54;;;;;;;20.20;4.78;;;16.40;99.90;;;;;;5074764;28;20051;-72
2023/09/28 06:32:21;;;;;;;12.27;4.80;;;16.40;99.90;;;;;;5074691;28;20041;-72
2023/09/28 06:34:47;;;;;;;17.67;5.13;;;16.40;99.90;;;;;;5074540;28;20056;-72
2023/09/28 06:37:13;;;;;;;15.02;4.53;;;16.40;99.90;;;;;;5074536;28;20033;-72
2023/09/28 06:39:38;;;;;;;16.35;4.30;;;16.50;99.90;;;;;;5074571;28;20037;-70
2023/09/28 06:42:07;;;;;;;21.48;4.45;;;16.40;99.90;;;;;;5074561;28;20044;-70
2023/09/28 06:44:34;;;;;;;18.35;4.72;;;16.40;99.90;;;;;;5073715;28;20040;-70
2023/09/28 06:47:01;;;;;;;16.17;4.25;;;16.50;99.90;;;;;;5074442;28;20054;-70
2023/09/28 06:49:27;;;;;;;19.80;4.65;;;16.50;99.90;;;;;;5074687;28;20075;-71
2023/09/28 06:51:53;;;;;;;22.42;5.50;;;16.50;99.90;;;;;;5074374;28;20041;-71
2023/09/28 06:54:20;;;;;;;18.77;4.50;;;16.50;99.90;;;;;;5074263;28;20040;-71
2023/09/28 06:56:49;;;;;;;19.30;4.90;;;16.60;99.90;;;;;;5074250;28;20049;-71
2023/09/28 06:59:15;;;;;;;16.73;4.82;;;16.50;99.90;;;;;;5075504;28;20041;-71
2023/09/28 07:01:40;;;;;;;15.80;4.97;;;16.60;99.90;;;;;;5074234;28;20151;-71
2023/09/28 07:04:06;;;;;;;21.20;4.70;;;16.60;99.90;;;;;;5074106;28;20040;-71
2023/09/28 07:06:33;;;;;;;17.90;4.78;;;16.70;99.90;;;;;;5074192;28;20040;-71
2023/09/28 07:08:59;;;;;;;21.98;4.90;;;16.60;99.90;;;;;;5074069;28;20041;-70
2023/09/28 07:11:26;;;;;;;21.45;5.32;;;16.70;99.90;;;;;;5074613;28;20067;-70
2023/09/28 07:13:52;;;;;;;18.35;4.78;;;16.70;99.90;;;;;;5074160;28;20041;-70
2023/09/28 07:16:18;;;;;;;16.90;4.43;;;16.70;99.90;;;;;;5073890;28;20041;-70
2023/09/28 07:18:43;;;;;;;21.58;4.90;;;16.80;99.90;;;;;;5073821;28;20066;-71
2023/09/28 07:21:09;;;;;;;21.85;5.72;;;16.80;99.90;;;;;;5075141;28;20071;-71
2023/09/28 07:23:36;;;;;;;24.35;5.30;;;16.90;99.90;;;;;;5073784;28;20090;-71
2023/09/28 07:26:02;;;;;;;20.88;4.57;;;16.90;99.90;;;;;;5074315;28;20074;-72
2023/09/28 07:28:28;;;;;;;24.63;5.20;;;16.90;99.90;;;;;;5074989;28;20040;-72
2023/09/28 07:30:54;;;;;;;24.08;4.97;;;17.00;99.90;;;;;;5074920;28;20048;-72
2023/09/28 07:33:20;;;;;;;23.50;4.75;;;17.00;99.90;;;;;;5073538;28;20558;-72
2023/09/28 07:35:45;;;;;;;24.38;4.68;;;17.10;99.90;;;;;;5073603;28;20130;-71
2023/09/28 07:38:12;;;;;;;27.25;5.25;;;17.10;99.90;;;;;;5073413;28;20131;-70
2023/09/28 07:40:37;;;;;;;27.25;5.05;;;17.20;99.90;;;;;;5074704;28;20090;-70
2023/09/28 07:43:03;;;;;;;21.52;4.72;;;17.20;99.90;;;;;;5073649;28;20040;-70
2023/09/28 07:45:29;;;;;;;22.13;5.05;;;17.20;99.90;;;;;;5073269;28;20448;-70
2023/09/28 07:47:55;;;;;;;22.23;4.50;;;17.30;99.90;;;;;;5073305;28;20058;-70
2023/09/28 07:50:21;;;;;;;23.80;5.15;;;17.40;99.90;;;;;;5073562;28;20041;-71
2023/09/28 07:52:47;;;;;;;30.10;5.65;;;17.50;99.90;;;;;;5073460;28;20084;-71
2023/09/28 07:55:14;;;;;;;25.02;5.13;;;17.60;99.90;;;;;;5073127;28;20513;-71
2023/09/28 07:57:40;;;;;;;28.65;5.55;;;17.60;99.90;;;;;;5071998;28;20509;-71
2023/09/28 08:00:06;;;;;;;28.80;5.38;;;17.80;99.90;;;;;;5073080;28;20040;-71
2023/09/28 08:02:32;;;;;;;26.67;6.10;;;17.90;99.90;;;;;;5073016;28;20051;-72
2023/09/28 08:04:58;;;;;;;26.67;5.35;;;18.10;99.90;;;;;;5072879;28;20049;-72
2023/09/28 08:07:24;;;;;;;25.13;5.90;;;18.30;99.90;;;;;;5072854;28;20045;-71
2023/09/28 08:09:50;;;;;;;27.88;6.10;;;18.40;99.90;;;;;;5072889;28;20040;-71
2023/09/28 08:12:16;;;;;;;25.75;6.07;;;18.60;99.90;;;;;;5072822;28;20051;-71
2023/09/28 08:14:42;;;;;;;23.65;5.82;;;18.90;99.90;;;;;;5072967;28;20036;-71
2023/09/28 08:17:09;;;;;;;31.15;7.15;;;19.10;99.90;;;;;;5072744;28;20044;-71
2023/09/28 08:19:36;;;;;;;23.30;5.82;;;19.50;99.90;;;;;;5072685;28;20041;-71
2023/09/28 08:22:03;;;;;;;27.08;5.55;;;19.90;99.90;;;;;;5072639;28;20056;-71
2023/09/28 08:24:29;;;;;;;26.70;5.65;;;20.20;99.90;;;;;;5072497;28;20040;-71
2023/09/28 08:26:55;;;;;;;26.00;5.85;;;20.40;99.90;;;;;;5072512;28;20043;-72
2023/09/28 08:29:21;;;;;;;26.45;5.93;;;20.60;99.90;;;;;;5072522;28;20044;-72
2023/09/28 08:31:46;;;;;;;32.53;5.55;;;20.90;99.90;;;;;;5072418;28;20044;-72
2023/09/28 08:34:12;;;;;;;26.88;5.50;;;21.20;99.90;;;;;;5072365;28;20041;-72
2023/09/28 08:36:38;;;;;;;32.65;6.95;;;21.70;99.90;;;;;;5072551;28;20070;-72
2023/09/28 08:39:05;;;;;;;25.25;5.70;;;21.60;99.90;;;;;;5072314;28;20461;-72
2023/09/28 08:41:43;;;;;;;23.48;5.32;;;21.40;99.90;;;;;;5072305;28;20040;-72
2023/09/28 08:44:10;;;;;;;24.58;5.45;;;21.10;99.90;;;;;;5072233;28;20040;-72
2023/09/28 08:46:39;;;;;;;24.33;5.00;;;20.70;99.90;;;;;;5055859;28;20554;-71
2023/09/28 08:49:10;;;;;;;25.27;5.57;;;20.30;99.90;;;;;;5055549;28;20079;-71
2023/09/28 08:51:37;;;;;;;23.45;5.53;;;20.00;99.90;;;;;;5072409;28;20044;-72
2023/09/28 08:54:07;;;;;;;28.83;5.80;;;19.80;99.90;;;;;;5072136;28;20044;-72
2023/09/28 08:56:38;;;;;;;24.40;5.25;;;19.60;99.90;;;;;;5072025;28;20505;-72
2023/09/28 08:59:05;;;;;;;23.77;5.63;;;19.50;99.90;;;;;;5072076;28;20055;-72
2023/09/28 09:01:32;;;;;;;22.50;5.00;;;19.30;99.90;;;;;;5072079;28;20120;-73
2023/09/28 09:03:57;;;;;;;27.02;6.13;;;19.30;99.90;;;;;;5073488;28;20082;-72
2023/09/28 09:06:24;;;;;;;27.25;5.15;;;19.20;99.90;;;;;;5071970;28;20087;-72
2023/09/28 09:08:50;;;;;;;27.20;5.38;;;19.10;99.90;;;;;;5071880;28;20044;-72
2023/09/28 09:11:16;;;;;;;26.98;5.38;;;19.20;99.90;;;;;;5072213;28;20055;-74
2023/09/28 09:13:55;;;;;;;27.15;5.63;;;19.30;99.90;;;;;;5055695;28;20032;-75
2023/09/28 09:16:27;;;;;;;29.58;5.72;;;19.30;99.90;;;;;;5071907;28;20041;-75
2023/09/28 09:18:56;;;;;;;31.30;6.13;;;19.20;99.90;;;;;;5072133;28;20123;-75
2023/09/28 09:21:22;;;;;;;28.63;5.25;;;19.10;99.90;;;;;;5071819;28;20047;-75
2023/09/28 09:24:05;;;;;;;25.42;5.07;;;19.10;99.90;;;;;;5071746;28;20036;-75
2023/09/28 09:26:41;;;;;;;20.48;5.45;;;19.10;99.90;;;;;;5071807;28;20451;-75
2023/09/28 09:29:07;;;;;;;25.23;5.30;;;19.10;99.90;;;;;;5071761;28;20089;-75
2023/09/28 09:31:35;;;;;;;28.90;5.75;;;19.10;99.90;;;;;;5071684;28;20045;-75
2023/09/28 09:34:05;;;;;;;23.70;5.22;;;19.10;99.90;;;;;;5055199;28;20040;-75
2023/09/28 09:36:30;;;;;;;19.10;4.72;;;19.10;99.90;;;;;;5071682;28;20072;-75
2023/09/28 09:38:58;;;;;;;26.38;5.70;;;19.10;99.90;;;;;;5071890;28;20091;-75
2023/09/28 09:41:24;;;;;;;21.55;5.05;;;19.00;99.90;;;;;;5071623;28;20044;-75
2023/09/28 09:43:51;;;;;;;22.30;4.97;;;19.00;99.90;;;;;;5071542;28;20036;-75
2023/09/28 09:46:17;;;;;;;22.63;5.07;;;19.00;99.90;;;;;;5054859;28;20045;-75
2023/09/28 09:48:44;;;;;;;20.83;4.10;;;19.30;99.90;;;;;;5071583;28;20055;-74
2023/09/28 09:51:12;;;;;;;23.63;5.32;;;19.40;99.90;;;;;;5071862;28;20076;-74
2023/09/28 09:53:42;;;;;;;25.38;5.43;;;19.50;99.90;;;;;;5071435;28;20123;-74
2023/09/28 09:56:09;;;;;;;22.17;4.38;;;19.50;99.90;;;;;;5071535;28;20045;-73
2023/09/28 09:58:42;;;;;;;23.65;5.10;;;19.50;99.90;;;;;;5071423;28;20084;-73
2023/09/28 10:01:12;;;;;;;35.05;5.97;;;19.50;99.90;;;;;;5055040;28;20380;-72
2023/09/28 10:03:47;;;;;;;31.67;5.82;;;19.60;99.90;;;;;;5071595;28;20072;-72
2023/09/28 10:06:16;;;;;;;26.40;5.95;;;19.70;99.90;;;;;;5071427;28;20120;-72
2023/09/28 10:08:45;;;;;;;22.98;5.28;;;19.70;99.90;;;;;;5071369;28;20046;-72
2023/09/28 10:11:12;;;;;;;27.42;4.95;;;19.70;99.90;;;;;;5071598;28;20083;-72
2023/09/28 10:13:38;;;;;;;25.50;5.28;;;19.70;99.90;;;;;;5071255;28;20040;-72
2023/09/28 10:16:05;;;;;;;28.48;6.07;;;19.70;99.90;;;;;;5071193;28;20051;-72
2023/09/28 10:18:35;;;;;;;28.15;4.90;;;19.60;99.90;;;;;;5071136;28;20394;-72
2023/09/28 10:21:00;;;;;;;22.30;4.97;;;19.60;99.90;;;;;;5073722;28;20049;-72
2023/09/28 10:23:27;;;;;;;20.58;4.63;;;19.50;99.90;;;;;;5074838;28;20093;-72
2023/09/28 10:26:06;;;;;;;26.33;4.95;;;19.40;99.90;;;;;;5074862;28;20047;-72
2023/09/28 10:28:33;;;;;;;23.85;5.53;;;19.40;99.90;;;;;;5074931;28;20040;-72
2023/09/28 10:31:04;;;;;;;24.20;5.43;;;19.40;99.90;;;;;;5075069;28;20044;-72
2023/09/28 10:33:33;;;;;;;28.17;5.35;;;19.50;99.90;;;;;;5074987;28;20497;-72
2023/09/28 10:36:12;;;;;;;25.70;4.95;;;19.50;99.90;;;;;;5074973;28;20041;-72
2023/09/28 10:38:41;;;;;;;22.42;4.97;;;19.60;99.90;;;;;;5074623;28;20063;-72
2023/09/28 10:41:07;;;;;;;22.08;4.65;;;19.60;99.90;;;;;;5074917;28;20127;-72
2023/09/28 10:43:45;;;;;;;18.75;4.13;;;19.60;99.90;;;;;;5074514;28;20044;-72
2023/09/28 10:46:12;;;;;;;25.60;4.47;;;19.60;99.90;;;;;;5074585;28;20055;-72
2023/09/28 10:48:45;;;;;;;21.23;5.05;;;19.50;99.90;;;;;;5075472;28;20048;-71
2023/09/28 10:51:15;;;;;;;24.40;5.03;;;19.50;99.90;;;;;;5074480;28;20037;-71
2023/09/28 10:53:42;;;;;;;24.48;5.03;;;19.40;99.90;;;;;;5074334;28;20066;-70
2023/09/28 10:56:08;;;;;;;24.13;5.20;;;19.40;99.90;;;;;;5074349;28;20049;-71
2023/09/28 10:58:38;;;;;;;16.98;4.38;;;19.30;99.90;;;;;;5075484;28;20037;-71
2023/09/28 11:01:06;;;;;;;21.90;5.43;;;19.40;99.90;;;;;;5074173;28;20045;-71
2023/09/28 11:03:32;;;;;;;18.70;4.25;;;19.40;99.90;;;;;;5074302;28;20041;-71
2023/09/28 11:05:59;;;;;;;22.98;4.70;;;19.50;99.90;;;;;;5074177;28;20045;-71
2023/09/28 11:08:25;;;;;;;23.35;4.97;;;19.40;99.90;;;;;;5074415;28;20070;-71
2023/09/28 11:10:55;;;;;;;20.35;4.40;;;19.50;99.90;;;;;;5074425;28;20050;-71
2023/09/28 11:13:21;;;;;;;23.27;4.53;;;19.40;99.90;;;;;;5073917;28;20086;-71
2023/09/28 11:15:48;;;;;;;23.60;5.85;;;19.40;99.90;;;;;;5073873;28;20076;-71
2023/09/28 11:18:15;;;;;;;31.10;5.47;;;19.40;99.90;;;;;;5057188;28;20494;-71
2023/09/28 11:20:42;;;;;;;21.85;5.05;;;19.50;99.90;;;;;;5073893;28;20119;-71
2023/09/28 11:23:11;;;;;;;21.65;4.72;;;19.50;99.90;;;;;;5074548;28;20040;-70
2023/09/28 11:25:38;;;;;;;21.02;4.80;;;19.50;99.90;;;;;;5075044;28;20037;-70
2023/09/28 11:28:08;;;;;;;22.33;4.70;;;19.50;99.90;;;;;;5074020;28;20044;-71
2023/09/28 11:30:33;;;;;;;29.38;5.55;;;19.50;99.90;;;;;;5073714;28;20377;-71
2023/09/28 11:33:03;;;;;;;20.30;4.65;;;19.50;99.90;;;;;;5073610;28;20500;-71
2023/09/28 11:35:31;;;;;;;21.33;4.82;;;19.60;99.90;;;;;;5073854;28;20036;-71
2023/09/28 11:38:06;;;;;;;24.13;5.05;;;19.60;99.90;;;;;;5073492;28;20127;-71
2023/09/28 11:40:32;;;;;;;22.10;4.68;;;19.60;99.90;;;;;;5073524;28;20086;-71
2023/09/28 11:42:59;;;;;;;22.77;4.07;;;19.60;99.90;;;;;;5073446;28;20066;-71
2023/09/28 11:45:30;;;;;;;19.77;4.30;;;19.60;99.90;;;;;;5073413;28;20491;-71
2023/09/28 11:47:56;;;;;;;22.30;4.40;;;19.60;99.90;;;;;;5073572;28;20119;-72
2023/09/28 11:50:25;;;;;;;19.98;4.53;;;19.60;99.90;;;;;;5073310;28;20079;-71
2023/09/28 11:52:52;;;;;;;23.48;5.40;;;19.60;99.90;;;;;;5073268;28;20072;-71
2023/09/28 11:55:18;;;;;;;24.98;4.75;;;19.60;99.90;;;;;;5073479;28;20523;-71
2023/09/28 11:57:44;;;;;;;24.88;4.93;;;19.60;99.90;;;;;;5073093;28;20116;-70
2023/09/28 12:00:18;;;;;;;22.92;4.43;;;19.60;99.90;;;;;;5073373;28;20050;-70
2023/09/28 12:02:44;;;;;;;21.02;4.82;;;19.50;99.90;;;;;;5073119;28;20052;-71
2023/09/28 12:05:10;;;;;;;27.92;5.85;;;19.50;99.90;;;;;;5073170;28;20036;-71
2023/09/28 12:07:36;;;;;;;23.10;4.53;;;19.50;99.90;;;;;;5073151;28;20040;-70
2023/09/28 12:10:02;;;;;;;19.15;4.35;;;19.50;99.90;;;;;;5072902;28;20516;-70
2023/09/28 12:12:28;;;;;;;22.48;4.60;;;19.50;99.90;;;;;;5072843;28;20460;-70
2023/09/28 12:14:53;;;;;;;19.83;4.68;;;19.60;99.90;;;;;;5072740;28;20049;-70
2023/09/28 12:17:19;;;;;;;23.40;4.22;;;19.60;99.90;;;;;;5072484;28;20072;-71
2023/09/28 12:19:45;;;;;;;24.02;4.95;;;19.60;99.90;;;;;;5072734;28;20078;-71
2023/09/28 12:22:11;;;;;;;23.48;4.53;;;19.70;99.90;;;;;;5072671;28;20036;-71
2023/09/28 12:24:36;;;;;;;23.75;4.38;;;19.70;99.90;;;;;;5072829;28;20095;-71
2023/09/28 12:27:04;;;;;;;24.10;5.05;;;19.60;99.90;;;;;;5072625;28;20405;-71
2023/09/28 12:29:30;;;;;;;30.13;5.18;;;19.70;99.90;;;;;;5072797;28;20049;-71
2023/09/28 12:31:56;;;;;;;23.23;4.55;;;19.70;99.90;;;;;;5072519;28;20044;-72
2023/09/28 12:34:26;;;;;;;27.77;5.18;;;19.70;99.90;;;;;;5073892;28;20114;-71
2023/09/28 12:36:57;;;;;;;23.35;5.60;;;19.70;99.90;;;;;;5072443;28;20125;-71
2023/09/28 12:39:24;;;;;;;25.90;5.28;;;19.70;99.90;;;;;;5056735;28;20087;-71
2023/09/28 12:41:51;;;;;;;25.27;6.10;;;19.60;99.90;;;;;;5073847;28;20064;-71